sensor_id;sensor_type;location;lat;lon;timestamp;pressure;altitude;pressure_sealevel;temperature;humidity
71195;BME280;58908;51.426;7.714;2023-03-13T00:00:23;98714.66;;;8.96;100.00
71195;BME280;58908;51.426;7.714;2023-03-13T00:02:50;98703.19;;;8.97;100.00
71195;BME280;58908;51.426;7.714;2023-03-13T00:05:17;98703.19;;;8.97;100.00
71195;BME280;58908;51.426;7.714;2023-03-13T00:07:43;98690.97;;;9.08;100.00
71195;BME280;58908;51.426;7.714;2023-03-13T00:10:10;98693.19;;;9.02;100.00
71195;BME280;58908;51.426;7.714;2023-03-13T00:12:36;98688.97;;;8.99;100.00
71195;BME280;58908;51.426;7.714;2023-03-13T00:15:02;98684.03;;;8.95;100.00
71195;BME280;58908;51.426;7.714;2023-03-13T00:17:29;98668.78;;;9.00;100.00
71195;BME280;58908;51.426;7.714;2023-03-13T00:19:57;98662.66;;;8.99;100.00
71195;BME280;58908;51.426;7.714;2023-03-13T00:22:24;98646.16;;;8.97;100.00
71195;BME280;58908;51.426;7.714;2023-03-13T00:24:51;98655.63;;;9.00;100.00
71195;BME280;58908;51.426;7.714;2023-03-13T00:27:17;98645.09;;;9.00;100.00
71195;BME280;58908;51.426;7.714;2023-03-13T00:29:43;98639.84;;;9.12;100.00
71195;BME280;58908;51.426;7.714;2023-03-13T00:32:09;98635.09;;;9.17;100.00
71195;BME280;58908;51.426;7.714;2023-03-13T00:34:35;98631.31;;;9.21;100.00
71195;BME280;58908;51.426;7.714;2023-03-13T00:37:02;98633.22;;;9.19;100.00
71195;BME280;58908;51.426;7.714;2023-03-13T00:39:29;98628.66;;;9.21;100.00
71195;BME280;58908;51.426;7.714;2023-03-13T00:41:56;98640.78;;;9.24;100.00
71195;BME280;58908;51.426;7.714;2023-03-13T00:44:22;98636.47;;;9.23;100.00
71195;BME280;58908;51.426;7.714;2023-03-13T00:46:48;98634.97;;;9.31;100.00
71195;BME280;58908;51.426;7.714;2023-03-13T00:49:14;98628.16;;;9.29;100.00
71195;BME280;58908;51.426;7.714;2023-03-13T00:51:40;98624.13;;;9.36;100.00
71195;BME280;58908;51.426;7.714;2023-03-13T00:54:07;98623.91;;;9.38;100.00
71195;BME280;58908;51.426;7.714;2023-03-13T00:56:35;98614.56;;;9.35;100.00
71195;BME280;58908;51.426;7.714;2023-03-13T00:59:02;98617.41;;;9.32;100.00
71195;BME280;58908;51.426;7.714;2023-03-13T01:01:28;98603.72;;;9.27;100.00
71195;BME280;58908;51.426;7.714;2023-03-13T01:03:56;98595.66;;;9.17;100.00
71195;BME280;58908;51.426;7.714;2023-03-13T01:06:23;98601.13;;;9.02;100.00
71195;BME280;58908;51.426;7.714;2023-03-13T01:08:49;98590.91;;;8.97;100.00
71195;BME280;58908;51.426;7.714;2023-03-13T01:11:17;98584.19;;;8.93;100.00
71195;BME280;58908;51.426;7.714;2023-03-13T01:13:47;98589.38;;;8.95;100.00
71195;BME280;58908;51.426;7.714;2023-03-13T01:16:14;98569.88;;;9.10;100.00
71195;BME280;58908;51.426;7.714;2023-03-13T01:18:41;98564.94;;;9.05;100.00
71195;BME280;58908;51.426;7.714;2023-03-13T01:21:08;98550.75;;;9.08;100.00
71195;BME280;58908;51.426;7.714;2023-03-13T01:23:34;98548.19;;;9.06;100.00
71195;BME280;58908;51.426;7.714;2023-03-13T01:26:00;98543.56;;;9.10;100.00
71195;BME280;58908;51.426;7.714;2023-03-13T01:28:29;98546.50;;;9.18;100.00
71195;BME280;58908;51.426;7.714;2023-03-13T01:30:57;98520.06;;;9.19;100.00
71195;BME280;58908;51.426;7.714;2023-03-13T01:33:24;98525.97;;;9.23;100.00
71195;BME280;58908;51.426;7.714;2023-03-13T01:35:50;98508.81;;;9.17;100.00
71195;BME280;58908;51.426;7.714;2023-03-13T01:38:16;98519.34;;;9.17;100.00
71195;BME280;58908;51.426;7.714;2023-03-13T01:40:43;98498.84;;;9.10;100.00
71195;BME280;58908;51.426;7.714;2023-03-13T01:43:17;98487.06;;;9.15;100.00
71195;BME280;58908;51.426;7.714;2023-03-13T01:45:53;98476.22;;;9.20;100.00
71195;BME280;58908;51.426;7.714;2023-03-13T01:48:20;98473.56;;;9.20;100.00
71195;BME280;58908;51.426;7.714;2023-03-13T01:50:47;98484.19;;;9.18;100.00
71195;BME280;58908;51.426;7.714;2023-03-13T01:53:13;98472.22;;;9.14;100.00
71195;BME280;58908;51.426;7.714;2023-03-13T01:55:42;98468.53;;;9.17;100.00
71195;BME280;58908;51.426;7.714;2023-03-13T01:58:09;98480.34;;;9.11;100.00
71195;BME280;58908;51.426;7.714;2023-03-13T02:00:35;98462.53;;;9.15;100.00
71195;BME280;58908;51.426;7.714;2023-03-13T02:03:02;98462.09;;;9.21;100.00
71195;BME280;58908;51.426;7.714;2023-03-13T02:05:32;98439.19;;;9.10;100.00
71195;BME280;58908;51.426;7.714;2023-03-13T02:07:59;98438.69;;;9.05;100.00
71195;BME280;58908;51.426;7.714;2023-03-13T02:10:27;98421.22;;;9.04;100.00
71195;BME280;58908;51.426;7.714;2023-03-13T02:12:54;98417.63;;;9.05;100.00
71195;BME280;58908;51.426;7.714;2023-03-13T02:15:21;98425.09;;;9.11;100.00
71195;BME280;58908;51.426;7.714;2023-03-13T02:17:49;98402.50;;;9.09;100.00
71195;BME280;58908;51.426;7.714;2023-03-13T02:20:17;98395.16;;;9.01;100.00
71195;BME280;58908;51.426;7.714;2023-03-13T02:22:47;98401.97;;;9.04;100.00
71195;BME280;58908;51.426;7.714;2023-03-13T02:25:18;98398.50;;;9.03;100.00
71195;BME280;58908;51.426;7.714;2023-03-13T02:27:49;98379.56;;;8.98;100.00
71195;BME280;58908;51.426;7.714;2023-03-13T02:30:16;98374.78;;;8.92;100.00
71195;BME280;58908;51.426;7.714;2023-03-13T02:32:42;98365.84;;;8.95;100.00
71195;BME280;58908;51.426;7.714;2023-03-13T02:35:11;98378.69;;;8.87;100.00
71195;BME280;58908;51.426;7.714;2023-03-13T02:37:38;98371.75;;;8.86;100.00
71195;BME280;58908;51.426;7.714;2023-03-13T02:40:07;98358.31;;;8.78;100.00
71195;BME280;58908;51.426;7.714;2023-03-13T02:42:35;98349.47;;;8.79;100.00
71195;BME280;58908;51.426;7.714;2023-03-13T02:45:04;98359.16;;;8.78;100.00
71195;BME280;58908;51.426;7.714;2023-03-13T02:47:30;98340.75;;;8.78;100.00
71195;BME280;58908;51.426;7.714;2023-03-13T02:49:56;98333.06;;;8.75;100.00
71195;BME280;58908;51.426;7.714;2023-03-13T02:52:23;98324.03;;;8.79;100.00
71195;BME280;58908;51.426;7.714;2023-03-13T02:54:51;98309.22;;;8.78;100.00
71195;BME280;58908;51.426;7.714;2023-03-13T02:57:21;98319.56;;;8.92;100.00
71195;BME280;58908;51.426;7.714;2023-03-13T02:59:47;98309.75;;;8.94;100.00
71195;BME280;58908;51.426;7.714;2023-03-13T03:02:14;98288.63;;;8.96;100.00
71195;BME280;58908;51.426;7.714;2023-03-13T03:04:41;98286.72;;;8.98;100.00
71195;BME280;58908;51.426;7.714;2023-03-13T03:07:07;98290.78;;;9.02;100.00
71195;BME280;58908;51.426;7.714;2023-03-13T03:09:33;98293.53;;;9.00;100.00
71195;BME280;58908;51.426;7.714;2023-03-13T03:11:59;98301.44;;;9.00;100.00
71195;BME280;58908;51.426;7.714;2023-03-13T03:14:26;98291.50;;;9.04;100.00
71195;BME280;58908;51.426;7.714;2023-03-13T03:16:52;98283.88;;;9.12;100.00
71195;BME280;58908;51.426;7.714;2023-03-13T03:19:19;98273.84;;;9.06;100.00
71195;BME280;58908;51.426;7.714;2023-03-13T03:21:46;98278.25;;;9.05;100.00
71195;BME280;58908;51.426;7.714;2023-03-13T03:24:13;98271.31;;;9.04;100.00
71195;BME280;58908;51.426;7.714;2023-03-13T03:26:39;98269.06;;;9.11;100.00
71195;BME280;58908;51.426;7.714;2023-03-13T03:29:06;98269.78;;;9.13;100.00
71195;BME280;58908;51.426;7.714;2023-03-13T03:31:32;98253.03;;;9.14;100.00
71195;BME280;58908;51.426;7.714;2023-03-13T03:33:59;98260.47;;;9.20;100.00
71195;BME280;58908;51.426;7.714;2023-03-13T03:36:26;98274.59;;;9.19;100.00
71195;BME280;58908;51.426;7.714;2023-03-13T03:38:53;98248.75;;;9.24;100.00
71195;BME280;58908;51.426;7.714;2023-03-13T03:41:20;98250.56;;;9.23;100.00
71195;BME280;58908;51.426;7.714;2023-03-13T03:43:47;98250.94;;;9.30;100.00
71195;BME280;58908;51.426;7.714;2023-03-13T03:46:13;98249.38;;;9.27;100.00
71195;BME280;58908;51.426;7.714;2023-03-13T03:48:40;98237.28;;;9.25;100.00
71195;BME280;58908;51.426;7.714;2023-03-13T03:51:06;98216.03;;;9.28;100.00
71195;BME280;58908;51.426;7.714;2023-03-13T03:53:33;98237.41;;;9.23;100.00
71195;BME280;58908;51.426;7.714;2023-03-13T03:56:00;98228.41;;;9.15;100.00
71195;BME280;58908;51.426;7.714;2023-03-13T03:58:26;98236.91;;;9.18;100.00
71195;BME280;58908;51.426;7.714;2023-03-13T04:00:53;98238.34;;;9.11;100.00
71195;BME280;58908;51.426;7.714;2023-03-13T04:03:21;98242.41;;;9.15;100.00
71195;BME280;58908;51.426;7.714;2023-03-13T04:05:47;98242.03;;;9.09;100.00
71195;BME280;58908;51.426;7.714;2023-03-13T04:08:13;98249.22;;;9.07;100.00
71195;BME280;58908;51.426;7.714;2023-03-13T04:10:41;98227.94;;;9.10;100.00
71195;BME280;58908;51.426;7.714;2023-03-13T04:13:07;98220.75;;;9.12;100.00
71195;BME280;58908;51.426;7.714;2023-03-13T04:15:34;98232.88;;;9.25;100.00
71195;BME280;58908;51.426;7.714;2023-03-13T04:18:00;98224.03;;;9.26;100.00
71195;BME280;58908;51.426;7.714;2023-03-13T04:20:26;98209.56;;;9.32;100.00
71195;BME280;58908;51.426;7.714;2023-03-13T04:22:53;98223.44;;;9.44;100.00
71195;BME280;58908;51.426;7.714;2023-03-13T04:25:19;98224.88;;;9.48;100.00
71195;BME280;58908;51.426;7.714;2023-03-13T04:27:47;98235.53;;;9.47;100.00
71195;BME280;58908;51.426;7.714;2023-03-13T04:30:13;98217.13;;;9.47;100.00
71195;BME280;58908;51.426;7.714;2023-03-13T04:32:40;98218.09;;;9.57;100.00
71195;BME280;58908;51.426;7.714;2023-03-13T04:35:06;98219.63;;;9.59;100.00
71195;BME280;58908;51.426;7.714;2023-03-13T04:37:32;98235.56;;;9.58;100.00
71195;BME280;58908;51.426;7.714;2023-03-13T04:39:59;98212.81;;;9.57;100.00
71195;BME280;58908;51.426;7.714;2023-03-13T04:42:25;98219.06;;;9.56;100.00
71195;BME280;58908;51.426;7.714;2023-03-13T04:44:52;98207.94;;;9.63;100.00
71195;BME280;58908;51.426;7.714;2023-03-13T04:47:19;98226.81;;;9.68;100.00
71195;BME280;58908;51.426;7.714;2023-03-13T04:49:45;98189.97;;;9.68;100.00
71195;BME280;58908;51.426;7.714;2023-03-13T04:52:11;98199.16;;;9.74;100.00
71195;BME280;58908;51.426;7.714;2023-03-13T04:54:37;98198.81;;;9.67;100.00
71195;BME280;58908;51.426;7.714;2023-03-13T04:57:04;98194.50;;;9.66;100.00
71195;BME280;58908;51.426;7.714;2023-03-13T04:59:30;98178.25;;;9.61;100.00
71195;BME280;58908;51.426;7.714;2023-03-13T05:01:57;98192.59;;;9.57;100.00
71195;BME280;58908;51.426;7.714;2023-03-13T05:04:24;98200.22;;;9.49;100.00
71195;BME280;58908;51.426;7.714;2023-03-13T05:06:50;98168.19;;;9.44;100.00
71195;BME280;58908;51.426;7.714;2023-03-13T05:09:16;98219.41;;;9.51;100.00
71195;BME280;58908;51.426;7.714;2023-03-13T05:11:42;98199.88;;;9.43;100.00
71195;BME280;58908;51.426;7.714;2023-03-13T05:14:09;98183.72;;;9.37;100.00
71195;BME280;58908;51.426;7.714;2023-03-13T05:16:35;98170.22;;;9.41;100.00
71195;BME280;58908;51.426;7.714;2023-03-13T05:19:03;98165.66;;;9.54;100.00
71195;BME280;58908;51.426;7.714;2023-03-13T05:21:29;98180.38;;;9.56;100.00
71195;BME280;58908;51.426;7.714;2023-03-13T05:23:55;98180.38;;;9.56;100.00
71195;BME280;58908;51.426;7.714;2023-03-13T05:26:21;98161.00;;;9.57;100.00
71195;BME280;58908;51.426;7.714;2023-03-13T05:28:48;98173.09;;;9.60;100.00
71195;BME280;58908;51.426;7.714;2023-03-13T05:31:14;98171.28;;;9.71;100.00
71195;BME280;58908;51.426;7.714;2023-03-13T05:33:40;98156.59;;;9.69;100.00
71195;BME280;58908;51.426;7.714;2023-03-13T05:36:08;98157.03;;;9.74;100.00
71195;BME280;58908;51.426;7.714;2023-03-13T05:38:34;98157.38;;;9.91;100.00
71195;BME280;58908;51.426;7.714;2023-03-13T05:41:00;98175.00;;;9.91;100.00
71195;BME280;58908;51.426;7.714;2023-03-13T05:43:27;98161.84;;;10.02;100.00
71195;BME280;58908;51.426;7.714;2023-03-13T05:45:53;98133.78;;;10.01;100.00
71195;BME280;58908;51.426;7.714;2023-03-13T05:48:19;98140.25;;;9.97;100.00
71195;BME280;58908;51.426;7.714;2023-03-13T05:50:45;98149.28;;;10.05;100.00
71195;BME280;58908;51.426;7.714;2023-03-13T05:53:13;98153.56;;;10.06;100.00
71195;BME280;58908;51.426;7.714;2023-03-13T05:55:39;98152.63;;;10.07;100.00
71195;BME280;58908;51.426;7.714;2023-03-13T05:58:05;98155.34;;;10.06;100.00
71195;BME280;58908;51.426;7.714;2023-03-13T06:00:32;98151.13;;;10.14;100.00
71195;BME280;58908;51.426;7.714;2023-03-13T06:02:59;98161.56;;;10.16;100.00
71195;BME280;58908;51.426;7.714;2023-03-13T06:05:25;98150.91;;;10.17;100.00
71195;BME280;58908;51.426;7.714;2023-03-13T06:07:51;98144.16;;;10.24;100.00
71195;BME280;58908;51.426;7.714;2023-03-13T06:10:19;98156.88;;;10.19;100.00
71195;BME280;58908;51.426;7.714;2023-03-13T06:12:50;98159.38;;;10.21;100.00
71195;BME280;58908;51.426;7.714;2023-03-13T06:15:17;98156.25;;;10.27;100.00
71195;BME280;58908;51.426;7.714;2023-03-13T06:17:43;98170.84;;;10.31;100.00
71195;BME280;58908;51.426;7.714;2023-03-13T06:20:10;98181.88;;;10.36;100.00
71195;BME280;58908;51.426;7.714;2023-03-13T06:22:36;98160.19;;;10.32;100.00
71195;BME280;58908;51.426;7.714;2023-03-13T06:25:03;98151.59;;;10.30;100.00
71195;BME280;58908;51.426;7.714;2023-03-13T06:27:30;98122.25;;;10.55;100.00
71195;BME280;58908;51.426;7.714;2023-03-13T06:29:57;98141.03;;;10.62;100.00
71195;BME280;58908;51.426;7.714;2023-03-13T06:32:23;98137.94;;;10.57;100.00
71195;BME280;58908;51.426;7.714;2023-03-13T06:34:49;98146.41;;;10.60;100.00
71195;BME280;58908;51.426;7.714;2023-03-13T06:37:16;98144.50;;;10.62;100.00
71195;BME280;58908;51.426;7.714;2023-03-13T06:39:43;98143.22;;;10.57;100.00
71195;BME280;58908;51.426;7.714;2023-03-13T06:42:09;98147.25;;;10.61;100.00
71195;BME280;58908;51.426;7.714;2023-03-13T06:44:37;98133.13;;;10.62;100.00
71195;BME280;58908;51.426;7.714;2023-03-13T06:47:03;98149.16;;;10.70;100.00
71195;BME280;58908;51.426;7.714;2023-03-13T06:49:29;98146.94;;;10.75;100.00
71195;BME280;58908;51.426;7.714;2023-03-13T06:51:56;98147.91;;;10.74;100.00
71195;BME280;58908;51.426;7.714;2023-03-13T06:54:22;98154.94;;;10.84;100.00
71195;BME280;58908;51.426;7.714;2023-03-13T06:56:49;98143.56;;;10.84;100.00
71195;BME280;58908;51.426;7.714;2023-03-13T06:59:15;98146.06;;;10.85;100.00
71195;BME280;58908;51.426;7.714;2023-03-13T07:01:43;98141.69;;;10.95;100.00
71195;BME280;58908;51.426;7.714;2023-03-13T07:04:10;98147.41;;;11.00;100.00
71195;BME280;58908;51.426;7.714;2023-03-13T07:06:37;98151.06;;;11.09;100.00
71195;BME280;58908;51.426;7.714;2023-03-13T07:09:03;98146.75;;;11.08;100.00
71195;BME280;58908;51.426;7.714;2023-03-13T07:11:29;98160.81;;;11.08;100.00
71195;BME280;58908;51.426;7.714;2023-03-13T07:13:56;98156.53;;;11.17;100.00
71195;BME280;58908;51.426;7.714;2023-03-13T07:16:25;98164.00;;;11.32;100.00
71195;BME280;58908;51.426;7.714;2023-03-13T07:18:53;98146.69;;;11.39;100.00
71195;BME280;58908;51.426;7.714;2023-03-13T07:21:21;98153.25;;;11.45;100.00
71195;BME280;58908;51.426;7.714;2023-03-13T07:23:47;98145.94;;;11.37;100.00
71195;BME280;58908;51.426;7.714;2023-03-13T07:26:14;98154.59;;;11.39;100.00
71195;BME280;58908;51.426;7.714;2023-03-13T07:28:40;98160.31;;;11.44;100.00
71195;BME280;58908;51.426;7.714;2023-03-13T07:31:07;98156.56;;;11.47;100.00
71195;BME280;58908;51.426;7.714;2023-03-13T07:33:35;98157.69;;;11.54;100.00
71195;BME280;58908;51.426;7.714;2023-03-13T07:36:03;98157.84;;;11.52;100.00
71195;BME280;58908;51.426;7.714;2023-03-13T07:38:30;98158.31;;;11.57;100.00
71195;BME280;58908;51.426;7.714;2023-03-13T07:40:56;98154.69;;;11.58;100.00
71195;BME280;58908;51.426;7.714;2023-03-13T07:43:23;98155.56;;;11.68;100.00
71195;BME280;58908;51.426;7.714;2023-03-13T07:45:50;98149.69;;;11.85;100.00
71195;BME280;58908;51.426;7.714;2023-03-13T07:48:17;98153.31;;;11.93;100.00
71195;BME280;58908;51.426;7.714;2023-03-13T07:50:43;98151.38;;;11.95;100.00
71195;BME280;58908;51.426;7.714;2023-03-13T07:53:10;98152.47;;;11.93;100.00
71195;BME280;58908;51.426;7.714;2023-03-13T07:55:37;98130.22;;;12.05;100.00
71195;BME280;58908;51.426;7.714;2023-03-13T07:58:03;98131.09;;;12.15;100.00
71195;BME280;58908;51.426;7.714;2023-03-13T08:00:29;98120.84;;;12.31;100.00
71195;BME280;58908;51.426;7.714;2023-03-13T08:02:56;98115.25;;;12.43;100.00
71195;BME280;58908;51.426;7.714;2023-03-13T08:05:22;98110.13;;;12.42;100.00
71195;BME280;58908;51.426;7.714;2023-03-13T08:07:48;98107.47;;;12.51;100.00
71195;BME280;58908;51.426;7.714;2023-03-13T08:10:16;98111.50;;;12.46;100.00
71195;BME280;58908;51.426;7.714;2023-03-13T08:12:42;98110.28;;;12.50;100.00
71195;BME280;58908;51.426;7.714;2023-03-13T08:15:08;98091.03;;;12.48;100.00
71195;BME280;58908;51.426;7.714;2023-03-13T08:17:35;98107.19;;;12.45;100.00
71195;BME280;58908;51.426;7.714;2023-03-13T08:20:01;98100.66;;;12.39;100.00
71195;BME280;58908;51.426;7.714;2023-03-13T08:22:28;98084.25;;;12.45;100.00
71195;BME280;58908;51.426;7.714;2023-03-13T08:24:55;98087.16;;;12.42;100.00
71195;BME280;58908;51.426;7.714;2023-03-13T08:27:22;98099.69;;;12.40;100.00
71195;BME280;58908;51.426;7.714;2023-03-13T08:29:51;98088.28;;;12.40;100.00
71195;BME280;58908;51.426;7.714;2023-03-13T08:32:17;98082.84;;;12.41;100.00
71195;BME280;58908;51.426;7.714;2023-03-13T08:34:44;98090.63;;;12.52;100.00
71195;BME280;58908;51.426;7.714;2023-03-13T08:37:13;98102.31;;;12.59;100.00
71195;BME280;58908;51.426;7.714;2023-03-13T08:39:39;98086.59;;;12.58;100.00
71195;BME280;58908;51.426;7.714;2023-03-13T08:42:07;98093.00;;;12.55;100.00
71195;BME280;58908;51.426;7.714;2023-03-13T08:44:39;98093.28;;;12.62;100.00
71195;BME280;58908;51.426;7.714;2023-03-13T08:47:06;98086.84;;;12.64;100.00
71195;BME280;58908;51.426;7.714;2023-03-13T08:49:32;98090.50;;;12.54;100.00
71195;BME280;58908;51.426;7.714;2023-03-13T08:51:58;98081.72;;;12.53;100.00
71195;BME280;58908;51.426;7.714;2023-03-13T08:54:25;98081.28;;;12.58;100.00
71195;BME280;58908;51.426;7.714;2023-03-13T08:56:51;98097.59;;;12.63;100.00
71195;BME280;58908;51.426;7.714;2023-03-13T08:59:18;98095.78;;;12.73;100.00
71195;BME280;58908;51.426;7.714;2023-03-13T09:01:45;98105.38;;;12.83;100.00
71195;BME280;58908;51.426;7.714;2023-03-13T09:04:12;98107.31;;;12.81;100.00
71195;BME280;58908;51.426;7.714;2023-03-13T09:06:38;98106.06;;;12.76;100.00
71195;BME280;58908;51.426;7.714;2023-03-13T09:09:05;98116.50;;;12.68;100.00
71195;BME280;58908;51.426;7.714;2023-03-13T09:11:31;98113.59;;;12.61;100.00
71195;BME280;58908;51.426;7.714;2023-03-13T09:13:58;98130.44;;;12.60;100.00
71195;BME280;58908;51.426;7.714;2023-03-13T09:16:25;98114.16;;;12.65;100.00
71195;BME280;58908;51.426;7.714;2023-03-13T09:18:54;98098.25;;;12.74;100.00
71195;BME280;58908;51.426;7.714;2023-03-13T09:21:21;98135.06;;;12.77;100.00
71195;BME280;58908;51.426;7.714;2023-03-13T09:23:48;98117.38;;;12.68;100.00
71195;BME280;58908;51.426;7.714;2023-03-13T09:26:15;98117.75;;;12.54;100.00
71195;BME280;58908;51.426;7.714;2023-03-13T09:28:42;98116.78;;;12.46;100.00
71195;BME280;58908;51.426;7.714;2023-03-13T09:31:09;98121.25;;;12.36;100.00
71195;BME280;58908;51.426;7.714;2023-03-13T09:33:36;98109.56;;;12.38;100.00
71195;BME280;58908;51.426;7.714;2023-03-13T09:36:04;98114.84;;;12.48;100.00
71195;BME280;58908;51.426;7.714;2023-03-13T09:38:31;98122.94;;;12.46;100.00
71195;BME280;58908;51.426;7.714;2023-03-13T09:41:00;98110.25;;;12.59;100.00
71195;BME280;58908;51.426;7.714;2023-03-13T09:43:31;98101.88;;;12.92;100.00
71195;BME280;58908;51.426;7.714;2023-03-13T09:46:01;98095.63;;;12.93;100.00
71195;BME280;58908;51.426;7.714;2023-03-13T09:48:30;98093.00;;;13.39;100.00
71195;BME280;58908;51.426;7.714;2023-03-13T09:50:58;98080.41;;;13.78;100.00
71195;BME280;58908;51.426;7.714;2023-03-13T09:53:32;98081.09;;;13.53;100.00
71195;BME280;58908;51.426;7.714;2023-03-13T09:56:00;98081.66;;;13.47;100.00
71195;BME280;58908;51.426;7.714;2023-03-13T09:58:28;98075.50;;;13.19;100.00
71195;BME280;58908;51.426;7.714;2023-03-13T10:00:55;98055.38;;;14.59;100.00
71195;BME280;58908;51.426;7.714;2023-03-13T10:03:24;98059.44;;;14.46;100.00
71195;BME280;58908;51.426;7.714;2023-03-13T10:05:54;98065.22;;;14.84;100.00
71195;BME280;58908;51.426;7.714;2023-03-13T10:08:21;98047.41;;;14.77;100.00
71195;BME280;58908;51.426;7.714;2023-03-13T10:10:50;98046.84;;;14.48;100.00
71195;BME280;58908;51.426;7.714;2023-03-13T10:13:21;98055.38;;;14.07;100.00
71195;BME280;58908;51.426;7.714;2023-03-13T10:15:49;98054.06;;;14.21;100.00
71195;BME280;58908;51.426;7.714;2023-03-13T10:18:16;98054.06;;;14.21;100.00
71195;BME280;58908;51.426;7.714;2023-03-13T10:20:45;98030.19;;;14.38;100.00
71195;BME280;58908;51.426;7.714;2023-03-13T10:23:13;98055.47;;;14.67;100.00
71195;BME280;58908;51.426;7.714;2023-03-13T10:25:40;98039.69;;;14.83;100.00
71195;BME280;58908;51.426;7.714;2023-03-13T10:28:10;98045.41;;;14.96;100.00
71195;BME280;58908;51.426;7.714;2023-03-13T10:30:36;98034.22;;;14.67;100.00
71195;BME280;58908;51.426;7.714;2023-03-13T10:33:16;98032.22;;;14.61;100.00
71195;BME280;58908;51.426;7.714;2023-03-13T10:35:43;98029.09;;;14.48;100.00
71195;BME280;58908;51.426;7.714;2023-03-13T10:38:10;98032.06;;;14.45;100.00
71195;BME280;58908;51.426;7.714;2023-03-13T10:40:36;98039.13;;;14.37;100.00
71195;BME280;58908;51.426;7.714;2023-03-13T10:43:03;98035.31;;;14.82;100.00
71195;BME280;58908;51.426;7.714;2023-03-13T10:45:32;98021.19;;;14.99;100.00
71195;BME280;58908;51.426;7.714;2023-03-13T10:48:00;98035.84;;;14.86;100.00
71195;BME280;58908;51.426;7.714;2023-03-13T10:50:30;98016.72;;;15.00;100.00
71195;BME280;58908;51.426;7.714;2023-03-13T10:52:57;98009.22;;;14.95;100.00
71195;BME280;58908;51.426;7.714;2023-03-13T10:55:24;98007.47;;;15.12;100.00
71195;BME280;58908;51.426;7.714;2023-03-13T10:57:52;98005.75;;;15.28;100.00
71195;BME280;58908;51.426;7.714;2023-03-13T11:00:27;97988.22;;;15.43;100.00
71195;BME280;58908;51.426;7.714;2023-03-13T11:02:55;97986.81;;;15.73;98.82
71195;BME280;58908;51.426;7.714;2023-03-13T11:05:28;97983.16;;;15.74;97.94
71195;BME280;58908;51.426;7.714;2023-03-13T11:07:55;97975.88;;;15.84;98.00
71195;BME280;58908;51.426;7.714;2023-03-13T11:10:22;97978.34;;;15.69;98.04
71195;BME280;58908;51.426;7.714;2023-03-13T11:12:49;97966.25;;;15.83;98.81
71195;BME280;58908;51.426;7.714;2023-03-13T11:15:17;97965.34;;;15.50;96.41
71195;BME280;58908;51.426;7.714;2023-03-13T11:17:45;97971.66;;;15.57;97.02
71195;BME280;58908;51.426;7.714;2023-03-13T11:20:20;97987.84;;;15.30;95.91
71195;BME280;58908;51.426;7.714;2023-03-13T11:22:52;97969.25;;;15.38;95.07
71195;BME280;58908;51.426;7.714;2023-03-13T11:25:22;97972.34;;;15.26;96.29
71195;BME280;58908;51.426;7.714;2023-03-13T11:27:52;97953.31;;;15.30;96.79
71195;BME280;58908;51.426;7.714;2023-03-13T11:30:34;97955.56;;;15.25;95.40
71195;BME280;58908;51.426;7.714;2023-03-13T11:33:08;97952.34;;;15.39;94.56
71195;BME280;58908;51.426;7.714;2023-03-13T11:35:38;97944.09;;;15.58;92.44
71195;BME280;58908;51.426;7.714;2023-03-13T11:38:06;97940.13;;;15.62;91.57
71195;BME280;58908;51.426;7.714;2023-03-13T11:40:35;97943.97;;;15.84;91.91
71195;BME280;58908;51.426;7.714;2023-03-13T11:43:08;97936.66;;;15.78;92.51
71195;BME280;58908;51.426;7.714;2023-03-13T11:45:43;97937.34;;;15.80;93.72
71195;BME280;58908;51.426;7.714;2023-03-13T11:48:15;97933.00;;;15.87;93.19
71195;BME280;58908;51.426;7.714;2023-03-13T11:50:48;97925.72;;;15.89;92.29
71195;BME280;58908;51.426;7.714;2023-03-13T11:55:56;97907.09;;;15.81;92.08
71195;BME280;58908;51.426;7.714;2023-03-13T11:58:33;97921.69;;;15.77;89.91
71195;BME280;58908;51.426;7.714;2023-03-13T12:01:02;97905.41;;;15.72;89.05
71195;BME280;58908;51.426;7.714;2023-03-13T12:03:33;97908.25;;;15.78;88.52
71195;BME280;58908;51.426;7.714;2023-03-13T12:06:03;97895.59;;;15.80;88.94
71195;BME280;58908;51.426;7.714;2023-03-13T12:08:33;97900.25;;;15.70;87.04
71195;BME280;58908;51.426;7.714;2023-03-13T12:11:03;97899.78;;;15.67;88.06
71195;BME280;58908;51.426;7.714;2023-03-13T12:13:31;97888.13;;;15.84;87.58
71195;BME280;58908;51.426;7.714;2023-03-13T12:16:01;97878.16;;;15.94;87.29
71195;BME280;58908;51.426;7.714;2023-03-13T12:18:31;97877.34;;;15.77;87.32
71195;BME280;58908;51.426;7.714;2023-03-13T12:21:00;97880.00;;;15.61;88.92
71195;BME280;58908;51.426;7.714;2023-03-13T12:23:34;97882.47;;;15.63;90.27
71195;BME280;58908;51.426;7.714;2023-03-13T12:26:03;97883.47;;;15.62;91.31
71195;BME280;58908;51.426;7.714;2023-03-13T12:28:33;97890.13;;;15.58;91.61
71195;BME280;58908;51.426;7.714;2023-03-13T12:31:03;97889.47;;;15.88;92.45
71195;BME280;58908;51.426;7.714;2023-03-13T12:33:33;97883.66;;;16.08;90.20
71195;BME280;58908;51.426;7.714;2023-03-13T12:36:03;97875.34;;;15.95;89.94
71195;BME280;58908;51.426;7.714;2023-03-13T12:38:33;97858.38;;;15.80;89.61
71195;BME280;58908;51.426;7.714;2023-03-13T12:41:05;97848.41;;;15.82;89.01
71195;BME280;58908;51.426;7.714;2023-03-13T12:43:38;97849.91;;;15.85;87.04
71195;BME280;58908;51.426;7.714;2023-03-13T12:46:13;97852.56;;;15.93;87.76
71195;BME280;58908;51.426;7.714;2023-03-13T12:48:49;97859.22;;;16.05;88.13
71195;BME280;58908;51.426;7.714;2023-03-13T12:51:24;97857.41;;;16.05;84.51
71195;BME280;58908;51.426;7.714;2023-03-13T12:54:10;97840.41;;;16.38;84.42
71195;BME280;58908;51.426;7.714;2023-03-13T12:56:43;97823.59;;;16.30;85.54
71195;BME280;58908;51.426;7.714;2023-03-13T12:59:13;97833.47;;;15.97;86.36